sensor_id;sensor_type;location;lat;lon;timestamp;temperature;humidity
51383;DHT22;37475;43.358;1.248;2022-12-18T00:01:25;5.90;94.80
51383;DHT22;37475;43.358;1.248;2022-12-18T00:03:53;6.00;94.90
51383;DHT22;37475;43.358;1.248;2022-12-18T00:06:20;5.90;94.90
51383;DHT22;37475;43.358;1.248;2022-12-18T00:08:47;5.80;94.90
51383;DHT22;37475;43.358;1.248;2022-12-18T00:11:16;5.90;94.90
51383;DHT22;37475;43.358;1.248;2022-12-18T00:13:43;5.90;94.90
51383;DHT22;37475;43.358;1.248;2022-12-18T00:16:15;5.80;95.00
51383;DHT22;37475;43.358;1.248;2022-12-18T00:18:47;5.80;95.00
51383;DHT22;37475;43.358;1.248;2022-12-18T00:21:14;5.70;95.00
51383;DHT22;37475;43.358;1.248;2022-12-18T00:23:42;5.70;95.10
51383;DHT22;37475;43.358;1.248;2022-12-18T00:26:17;5.70;95.00
51383;DHT22;37475;43.358;1.248;2022-12-18T00:28:45;5.60;95.10
51383;DHT22;37475;43.358;1.248;2022-12-18T00:31:14;5.60;95.20
51383;DHT22;37475;43.358;1.248;2022-12-18T00:33:42;5.60;95.30
51383;DHT22;37475;43.358;1.248;2022-12-18T00:36:14;5.60;95.30
51383;DHT22;37475;43.358;1.248;2022-12-18T00:38:47;5.60;95.30
51383;DHT22;37475;43.358;1.248;2022-12-18T00:41:15;5.50;95.20
51383;DHT22;37475;43.358;1.248;2022-12-18T00:44:03;5.50;95.30
51383;DHT22;37475;43.358;1.248;2022-12-18T00:46:29;5.50;95.30
51383;DHT22;37475;43.358;1.248;2022-12-18T00:48:55;5.50;95.50
51383;DHT22;37475;43.358;1.248;2022-12-18T00:51:21;5.50;95.50
51383;DHT22;37475;43.358;1.248;2022-12-18T00:53:48;5.50;95.50
51383;DHT22;37475;43.358;1.248;2022-12-18T00:56:13;5.40;95.60
51383;DHT22;37475;43.358;1.248;2022-12-18T00:58:39;5.40;95.70
51383;DHT22;37475;43.358;1.248;2022-12-18T01:01:05;5.40;95.70
51383;DHT22;37475;43.358;1.248;2022-12-18T01:03:31;5.30;95.90
51383;DHT22;37475;43.358;1.248;2022-12-18T01:05:58;5.40;96.00
51383;DHT22;37475;43.358;1.248;2022-12-18T01:08:24;5.40;96.00
51383;DHT22;37475;43.358;1.248;2022-12-18T01:10:50;5.40;96.00
51383;DHT22;37475;43.358;1.248;2022-12-18T01:13:15;5.40;96.00
51383;DHT22;37475;43.358;1.248;2022-12-18T01:15:51;5.40;96.00
51383;DHT22;37475;43.358;1.248;2022-12-18T01:18:17;5.40;96.00
51383;DHT22;37475;43.358;1.248;2022-12-18T01:20:43;5.40;96.00
51383;DHT22;37475;43.358;1.248;2022-12-18T01:23:08;5.50;96.00
51383;DHT22;37475;43.358;1.248;2022-12-18T01:25:38;5.30;96.00
51383;DHT22;37475;43.358;1.248;2022-12-18T01:28:04;5.30;96.20
51383;DHT22;37475;43.358;1.248;2022-12-18T01:30:30;5.30;96.20
51383;DHT22;37475;43.358;1.248;2022-12-18T01:32:55;5.30;96.20
51383;DHT22;37475;43.358;1.248;2022-12-18T01:35:21;5.40;96.20
51383;DHT22;37475;43.358;1.248;2022-12-18T01:37:47;5.30;96.20
51383;DHT22;37475;43.358;1.248;2022-12-18T01:40:13;5.40;96.20
51383;DHT22;37475;43.358;1.248;2022-12-18T01:42:39;5.40;96.10
51383;DHT22;37475;43.358;1.248;2022-12-18T01:48:00;5.40;96.10
51383;DHT22;37475;43.358;1.248;2022-12-18T01:50:40;5.40;96.10
51383;DHT22;37475;43.358;1.248;2022-12-18T01:53:14;5.40;96.10
51383;DHT22;37475;43.358;1.248;2022-12-18T01:55:52;5.40;96.10
51383;DHT22;37475;43.358;1.248;2022-12-18T01:58:45;5.40;96.10
51383;DHT22;37475;43.358;1.248;2022-12-18T02:01:13;5.40;96.10
51383;DHT22;37475;43.358;1.248;2022-12-18T02:03:42;5.30;96.10
51383;DHT22;37475;43.358;1.248;2022-12-18T02:09:07;5.40;96.00
51383;DHT22;37475;43.358;1.248;2022-12-18T02:12:09;5.40;96.00
51383;DHT22;37475;43.358;1.248;2022-12-18T02:17:38;5.40;96.00
51383;DHT22;37475;43.358;1.248;2022-12-18T02:26:34;5.40;96.00
51383;DHT22;37475;43.358;1.248;2022-12-18T02:29:10;5.30;96.20
51383;DHT22;37475;43.358;1.248;2022-12-18T02:31:49;5.40;96.20
51383;DHT22;37475;43.358;1.248;2022-12-18T02:34:19;5.40;96.10
51383;DHT22;37475;43.358;1.248;2022-12-18T02:36:48;5.40;96.20
51383;DHT22;37475;43.358;1.248;2022-12-18T02:39:16;5.40;96.20
51383;DHT22;37475;43.358;1.248;2022-12-18T02:41:43;5.40;96.20
51383;DHT22;37475;43.358;1.248;2022-12-18T02:44:11;5.40;96.20
51383;DHT22;37475;43.358;1.248;2022-12-18T02:46:42;5.30;96.20
51383;DHT22;37475;43.358;1.248;2022-12-18T02:49:20;5.40;96.20
51383;DHT22;37475;43.358;1.248;2022-12-18T02:54:46;5.40;96.40
51383;DHT22;37475;43.358;1.248;2022-12-18T02:57:55;5.40;96.40
51383;DHT22;37475;43.358;1.248;2022-12-18T03:00:38;5.40;96.50
51383;DHT22;37475;43.358;1.248;2022-12-18T03:06:04;5.30;96.60
51383;DHT22;37475;43.358;1.248;2022-12-18T03:08:38;5.40;96.60
51383;DHT22;37475;43.358;1.248;2022-12-18T03:11:11;5.30;96.60
51383;DHT22;37475;43.358;1.248;2022-12-18T03:13:55;5.40;96.60
51383;DHT22;37475;43.358;1.248;2022-12-18T03:16:26;5.50;96.60
51383;DHT22;37475;43.358;1.248;2022-12-18T03:18:57;5.40;96.60
51383;DHT22;37475;43.358;1.248;2022-12-18T03:21:33;5.40;96.60
51383;DHT22;37475;43.358;1.248;2022-12-18T03:24:07;5.40;96.70
51383;DHT22;37475;43.358;1.248;2022-12-18T03:26:37;5.40;96.70
51383;DHT22;37475;43.358;1.248;2022-12-18T03:29:13;5.40;96.70
51383;DHT22;37475;43.358;1.248;2022-12-18T03:31:49;5.40;96.70
51383;DHT22;37475;43.358;1.248;2022-12-18T03:34:33;5.40;96.70
51383;DHT22;37475;43.358;1.248;2022-12-18T03:37:01;5.40;96.70
51383;DHT22;37475;43.358;1.248;2022-12-18T03:39:27;5.40;96.80
51383;DHT22;37475;43.358;1.248;2022-12-18T03:42:10;5.30;96.80
51383;DHT22;37475;43.358;1.248;2022-12-18T03:47:32;5.30;96.80
51383;DHT22;37475;43.358;1.248;2022-12-18T03:50:16;5.20;96.80
51383;DHT22;37475;43.358;1.248;2022-12-18T03:53:12;5.20;96.90
51383;DHT22;37475;43.358;1.248;2022-12-18T03:55:42;5.20;96.90
51383;DHT22;37475;43.358;1.248;2022-12-18T03:58:11;5.20;96.90
51383;DHT22;37475;43.358;1.248;2022-12-18T04:00:42;5.20;97.00
51383;DHT22;37475;43.358;1.248;2022-12-18T04:03:10;5.20;97.10
51383;DHT22;37475;43.358;1.248;2022-12-18T04:05:37;5.20;97.10
51383;DHT22;37475;43.358;1.248;2022-12-18T04:08:04;5.20;97.10
51383;DHT22;37475;43.358;1.248;2022-12-18T04:10:30;5.20;97.20
51383;DHT22;37475;43.358;1.248;2022-12-18T04:12:57;5.20;97.20
51383;DHT22;37475;43.358;1.248;2022-12-18T04:15:23;5.30;97.20
51383;DHT22;37475;43.358;1.248;2022-12-18T04:17:50;5.30;97.30
51383;DHT22;37475;43.358;1.248;2022-12-18T04:20:16;5.30;97.30
51383;DHT22;37475;43.358;1.248;2022-12-18T04:22:43;5.30;97.30
51383;DHT22;37475;43.358;1.248;2022-12-18T04:25:09;5.40;97.30
51383;DHT22;37475;43.358;1.248;2022-12-18T04:27:38;5.40;97.30
51383;DHT22;37475;43.358;1.248;2022-12-18T04:30:04;5.50;97.30
51383;DHT22;37475;43.358;1.248;2022-12-18T04:32:32;5.50;97.20
51383;DHT22;37475;43.358;1.248;2022-12-18T04:34:59;5.50;97.20
51383;DHT22;37475;43.358;1.248;2022-12-18T04:37:24;5.50;97.10
51383;DHT22;37475;43.358;1.248;2022-12-18T04:39:50;5.50;97.00
51383;DHT22;37475;43.358;1.248;2022-12-18T04:42:16;5.60;96.90
51383;DHT22;37475;43.358;1.248;2022-12-18T04:44:42;5.60;96.90
51383;DHT22;37475;43.358;1.248;2022-12-18T04:47:08;5.50;96.70
51383;DHT22;37475;43.358;1.248;2022-12-18T04:49:33;5.60;96.70
51383;DHT22;37475;43.358;1.248;2022-12-18T04:51:59;5.60;96.60
51383;DHT22;37475;43.358;1.248;2022-12-18T04:54:25;5.60;96.50
51383;DHT22;37475;43.358;1.248;2022-12-18T04:56:51;5.60;96.40
51383;DHT22;37475;43.358;1.248;2022-12-18T04:59:17;5.60;96.40
51383;DHT22;37475;43.358;1.248;2022-12-18T05:01:42;5.50;96.30
51383;DHT22;37475;43.358;1.248;2022-12-18T05:04:08;5.50;96.30
51383;DHT22;37475;43.358;1.248;2022-12-18T05:06:34;5.50;96.20
51383;DHT22;37475;43.358;1.248;2022-12-18T05:09:00;5.50;96.20
51383;DHT22;37475;43.358;1.248;2022-12-18T05:11:26;5.60;96.10
51383;DHT22;37475;43.358;1.248;2022-12-18T05:13:51;5.50;96.10
51383;DHT22;37475;43.358;1.248;2022-12-18T05:16:17;5.60;96.10
51383;DHT22;37475;43.358;1.248;2022-12-18T05:18:43;5.60;96.10
51383;DHT22;37475;43.358;1.248;2022-12-18T05:21:09;5.60;96.00
51383;DHT22;37475;43.358;1.248;2022-12-18T05:23:35;5.60;96.00
51383;DHT22;37475;43.358;1.248;2022-12-18T05:26:04;5.60;95.90
51383;DHT22;37475;43.358;1.248;2022-12-18T05:28:33;5.60;95.90
51383;DHT22;37475;43.358;1.248;2022-12-18T05:31:00;5.60;95.90
51383;DHT22;37475;43.358;1.248;2022-12-18T05:33:30;5.60;95.80
51383;DHT22;37475;43.358;1.248;2022-12-18T05:35:59;5.60;95.80
51383;DHT22;37475;43.358;1.248;2022-12-18T05:38:30;5.50;95.70
51383;DHT22;37475;43.358;1.248;2022-12-18T05:40:57;5.50;95.70
51383;DHT22;37475;43.358;1.248;2022-12-18T05:43:24;5.50;95.70
51383;DHT22;37475;43.358;1.248;2022-12-18T05:45:51;5.50;95.60
51383;DHT22;37475;43.358;1.248;2022-12-18T05:48:19;5.40;95.50
51383;DHT22;37475;43.358;1.248;2022-12-18T05:50:47;5.50;95.60
51383;DHT22;37475;43.358;1.248;2022-12-18T05:53:16;5.50;95.50
51383;DHT22;37475;43.358;1.248;2022-12-18T05:55:43;5.40;95.50
51383;DHT22;37475;43.358;1.248;2022-12-18T05:58:10;5.40;95.50
51383;DHT22;37475;43.358;1.248;2022-12-18T06:00:41;5.40;95.50
51383;DHT22;37475;43.358;1.248;2022-12-18T06:03:09;5.40;95.60
51383;DHT22;37475;43.358;1.248;2022-12-18T06:05:42;5.30;95.60
51383;DHT22;37475;43.358;1.248;2022-12-18T06:08:09;5.30;95.60
51383;DHT22;37475;43.358;1.248;2022-12-18T06:10:36;5.30;95.70
51383;DHT22;37475;43.358;1.248;2022-12-18T06:13:02;5.20;95.70
51383;DHT22;37475;43.358;1.248;2022-12-18T06:15:28;5.20;95.80
51383;DHT22;37475;43.358;1.248;2022-12-18T06:17:54;5.20;95.80
51383;DHT22;37475;43.358;1.248;2022-12-18T06:20:20;5.20;95.80
51383;DHT22;37475;43.358;1.248;2022-12-18T06:22:46;5.10;95.80
51383;DHT22;37475;43.358;1.248;2022-12-18T06:25:12;5.10;95.80
51383;DHT22;37475;43.358;1.248;2022-12-18T06:27:38;5.10;95.80
51383;DHT22;37475;43.358;1.248;2022-12-18T06:30:04;5.10;95.80
51383;DHT22;37475;43.358;1.248;2022-12-18T06:32:31;5.00;95.80
51383;DHT22;37475;43.358;1.248;2022-12-18T06:34:57;5.00;95.80
51383;DHT22;37475;43.358;1.248;2022-12-18T06:37:23;5.00;95.80
51383;DHT22;37475;43.358;1.248;2022-12-18T06:39:54;5.00;95.80
51383;DHT22;37475;43.358;1.248;2022-12-18T06:42:22;4.90;95.80
51383;DHT22;37475;43.358;1.248;2022-12-18T06:44:48;4.90;95.70
51383;DHT22;37475;43.358;1.248;2022-12-18T06:47:14;4.80;95.70
51383;DHT22;37475;43.358;1.248;2022-12-18T06:49:40;4.90;95.80
51383;DHT22;37475;43.358;1.248;2022-12-18T06:52:06;4.80;95.80
51383;DHT22;37475;43.358;1.248;2022-12-18T06:54:31;4.90;95.70
51383;DHT22;37475;43.358;1.248;2022-12-18T06:56:57;4.80;95.50
51383;DHT22;37475;43.358;1.248;2022-12-18T06:59:23;4.80;95.30
51383;DHT22;37475;43.358;1.248;2022-12-18T07:01:49;4.80;95.10
51383;DHT22;37475;43.358;1.248;2022-12-18T07:04:15;4.90;94.80
51383;DHT22;37475;43.358;1.248;2022-12-18T07:06:40;4.90;94.50
51383;DHT22;37475;43.358;1.248;2022-12-18T07:09:06;4.90;94.30
51383;DHT22;37475;43.358;1.248;2022-12-18T07:11:33;4.90;93.70
51383;DHT22;37475;43.358;1.248;2022-12-18T07:13:59;4.90;93.40
51383;DHT22;37475;43.358;1.248;2022-12-18T07:16:25;5.00;93.20
51383;DHT22;37475;43.358;1.248;2022-12-18T07:18:52;5.00;92.80
51383;DHT22;37475;43.358;1.248;2022-12-18T07:21:20;5.10;92.80
51383;DHT22;37475;43.358;1.248;2022-12-18T07:23:46;5.10;92.50
51383;DHT22;37475;43.358;1.248;2022-12-18T07:26:14;5.10;92.30
51383;DHT22;37475;43.358;1.248;2022-12-18T07:28:42;5.00;92.20
51383;DHT22;37475;43.358;1.248;2022-12-18T07:31:11;4.90;92.30
51383;DHT22;37475;43.358;1.248;2022-12-18T07:33:38;5.00;92.20
51383;DHT22;37475;43.358;1.248;2022-12-18T07:36:06;5.00;92.20
51383;DHT22;37475;43.358;1.248;2022-12-18T07:38:34;4.90;92.20
51383;DHT22;37475;43.358;1.248;2022-12-18T07:41:05;5.00;92.10
51383;DHT22;37475;43.358;1.248;2022-12-18T07:43:33;5.00;92.10
51383;DHT22;37475;43.358;1.248;2022-12-18T07:45:59;5.00;92.00
51383;DHT22;37475;43.358;1.248;2022-12-18T07:48:25;5.00;92.10
51383;DHT22;37475;43.358;1.248;2022-12-18T07:50:51;5.10;92.10
51383;DHT22;37475;43.358;1.248;2022-12-18T07:53:17;5.10;92.10
51383;DHT22;37475;43.358;1.248;2022-12-18T07:55:43;5.10;92.00
51383;DHT22;37475;43.358;1.248;2022-12-18T07:58:10;5.20;91.90
51383;DHT22;37475;43.358;1.248;2022-12-18T08:00:35;5.20;91.90
51383;DHT22;37475;43.358;1.248;2022-12-18T08:03:02;5.20;91.90
51383;DHT22;37475;43.358;1.248;2022-12-18T08:05:28;5.20;91.80
51383;DHT22;37475;43.358;1.248;2022-12-18T08:07:54;5.30;91.80
51383;DHT22;37475;43.358;1.248;2022-12-18T08:10:20;5.30;91.70
51383;DHT22;37475;43.358;1.248;2022-12-18T08:12:49;5.30;91.70
51383;DHT22;37475;43.358;1.248;2022-12-18T08:15:16;5.40;91.60
51383;DHT22;37475;43.358;1.248;2022-12-18T08:17:42;5.40;91.60
51383;DHT22;37475;43.358;1.248;2022-12-18T08:20:08;5.40;91.50
51383;DHT22;37475;43.358;1.248;2022-12-18T08:22:38;5.50;91.90
51383;DHT22;37475;43.358;1.248;2022-12-18T08:25:04;5.50;91.80
51383;DHT22;37475;43.358;1.248;2022-12-18T08:27:31;5.60;91.80
51383;DHT22;37475;43.358;1.248;2022-12-18T08:29:57;5.70;91.60
51383;DHT22;37475;43.358;1.248;2022-12-18T08:32:24;5.70;91.40
51383;DHT22;37475;43.358;1.248;2022-12-18T08:34:50;5.80;91.30
51383;DHT22;37475;43.358;1.248;2022-12-18T08:37:16;5.90;91.30
51383;DHT22;37475;43.358;1.248;2022-12-18T08:39:42;6.00;91.20
51383;DHT22;37475;43.358;1.248;2022-12-18T08:42:08;6.10;91.30
51383;DHT22;37475;43.358;1.248;2022-12-18T08:44:53;6.20;91.00
51383;DHT22;37475;43.358;1.248;2022-12-18T08:47:19;6.30;90.60
51383;DHT22;37475;43.358;1.248;2022-12-18T08:49:44;6.50;90.60
51383;DHT22;37475;43.358;1.248;2022-12-18T08:52:10;6.60;90.50
51383;DHT22;37475;43.358;1.248;2022-12-18T08:54:42;6.60;90.40
51383;DHT22;37475;43.358;1.248;2022-12-18T08:57:08;6.70;90.30
51383;DHT22;37475;43.358;1.248;2022-12-18T08:59:34;6.70;90.20
51383;DHT22;37475;43.358;1.248;2022-12-18T09:02:00;6.80;90.00
51383;DHT22;37475;43.358;1.248;2022-12-18T09:04:26;6.90;90.00
51383;DHT22;37475;43.358;1.248;2022-12-18T09:06:52;7.00;89.80
51383;DHT22;37475;43.358;1.248;2022-12-18T09:09:21;7.10;89.60
51383;DHT22;37475;43.358;1.248;2022-12-18T09:11:46;7.10;89.30
51383;DHT22;37475;43.358;1.248;2022-12-18T09:14:12;7.30;89.40
51383;DHT22;37475;43.358;1.248;2022-12-18T09:16:38;7.30;89.30
51383;DHT22;37475;43.358;1.248;2022-12-18T09:19:04;7.30;88.90
51383;DHT22;37475;43.358;1.248;2022-12-18T09:21:33;7.40;89.00
51383;DHT22;37475;43.358;1.248;2022-12-18T09:23:59;7.50;89.00
51383;DHT22;37475;43.358;1.248;2022-12-18T09:26:26;7.50;89.00
51383;DHT22;37475;43.358;1.248;2022-12-18T09:28:52;7.60;89.30
51383;DHT22;37475;43.358;1.248;2022-12-18T09:31:21;7.60;89.20
51383;DHT22;37475;43.358;1.248;2022-12-18T09:33:48;7.80;89.00
51383;DHT22;37475;43.358;1.248;2022-12-18T09:36:16;7.90;88.90
51383;DHT22;37475;43.358;1.248;2022-12-18T09:38:43;8.00;88.70
51383;DHT22;37475;43.358;1.248;2022-12-18T09:44:39;8.10;88.20
51383;DHT22;37475;43.358;1.248;2022-12-18T09:47:14;8.10;88.00
51383;DHT22;37475;43.358;1.248;2022-12-18T09:50:32;8.10;87.70
51383;DHT22;37475;43.358;1.248;2022-12-18T09:53:07;8.20;87.90
51383;DHT22;37475;43.358;1.248;2022-12-18T09:55:42;8.20;87.50
51383;DHT22;37475;43.358;1.248;2022-12-18T09:58:31;8.30;87.80
51383;DHT22;37475;43.358;1.248;2022-12-18T10:01:00;8.40;87.60
51383;DHT22;37475;43.358;1.248;2022-12-18T10:03:26;8.50;87.50
51383;DHT22;37475;43.358;1.248;2022-12-18T10:06:15;8.60;87.30
51383;DHT22;37475;43.358;1.248;2022-12-18T10:09:12;8.80;87.40
51383;DHT22;37475;43.358;1.248;2022-12-18T10:15:10;9.10;86.70
51383;DHT22;37475;43.358;1.248;2022-12-18T10:23:01;9.30;85.70
51383;DHT22;37475;43.358;1.248;2022-12-18T10:28:22;9.30;85.00
51383;DHT22;37475;43.358;1.248;2022-12-18T10:30:48;9.40;85.40
51383;DHT22;37475;43.358;1.248;2022-12-18T10:33:29;9.40;85.70
51383;DHT22;37475;43.358;1.248;2022-12-18T10:35:56;9.60;85.50
51383;DHT22;37475;43.358;1.248;2022-12-18T10:38:25;9.50;85.00
51383;DHT22;37475;43.358;1.248;2022-12-18T10:43:31;9.60;85.50
51383;DHT22;37475;43.358;1.248;2022-12-18T10:51:06;9.60;85.00
51383;DHT22;37475;43.358;1.248;2022-12-18T10:53:35;9.60;85.10
51383;DHT22;37475;43.358;1.248;2022-12-18T10:56:04;9.70;85.20
51383;DHT22;37475;43.358;1.248;2022-12-18T11:01:14;9.70;84.50
51383;DHT22;37475;43.358;1.248;2022-12-18T11:03:44;9.90;84.30
51383;DHT22;37475;43.358;1.248;2022-12-18T11:06:19;9.90;84.20
51383;DHT22;37475;43.358;1.248;2022-12-18T11:09:19;9.80;83.50
51383;DHT22;37475;43.358;1.248;2022-12-18T11:11:53;10.00;83.80
51383;DHT22;37475;43.358;1.248;2022-12-18T11:14:26;10.40;83.10
51383;DHT22;37475;43.358;1.248;2022-12-18T11:16:58;10.70;82.70
51383;DHT22;37475;43.358;1.248;2022-12-18T11:19:39;10.60;81.60
51383;DHT22;37475;43.358;1.248;2022-12-18T11:22:26;10.40;82.90
51383;DHT22;37475;43.358;1.248;2022-12-18T11:25:02;10.50;82.30
51383;DHT22;37475;43.358;1.248;2022-12-18T11:27:31;10.80;81.60
51383;DHT22;37475;43.358;1.248;2022-12-18T11:35:51;10.70;81.30
51383;DHT22;37475;43.358;1.248;2022-12-18T11:38:25;10.60;81.30
51383;DHT22;37475;43.358;1.248;2022-12-18T11:41:03;10.50;81.30
51383;DHT22;37475;43.358;1.248;2022-12-18T11:43:41;10.80;81.30
51383;DHT22;37475;43.358;1.248;2022-12-18T11:46:19;10.60;80.50
51383;DHT22;37475;43.358;1.248;2022-12-18T11:48:57;10.70;81.00
51383;DHT22;37475;43.358;1.248;2022-12-18T11:51:37;10.70;80.60
51383;DHT22;37475;43.358;1.248;2022-12-18T11:54:13;10.90;81.10
51383;DHT22;37475;43.358;1.248;2022-12-18T11:57:04;11.10;80.70
51383;DHT22;37475;43.358;1.248;2022-12-18T12:02:48;10.80;80.30
51383;DHT22;37475;43.358;1.248;2022-12-18T12:10:32;10.50;81.20
51383;DHT22;37475;43.358;1.248;2022-12-18T12:21:43;9.90;82.80
51383;DHT22;37475;43.358;1.248;2022-12-18T12:24:37;10.00;83.30
51383;DHT22;37475;43.358;1.248;2022-12-18T12:30:34;9.90;83.20
51383;DHT22;37475;43.358;1.248;2022-12-18T12:33:23;9.90;83.00
51383;DHT22;37475;43.358;1.248;2022-12-18T12:36:29;10.00;83.30
51383;DHT22;37475;43.358;1.248;2022-12-18T12:39:32;10.10;82.80
51383;DHT22;37475;43.358;1.248;2022-12-18T12:42:04;10.20;82.90
51383;DHT22;37475;43.358;1.248;2022-12-18T12:44:55;10.00;82.60
51383;DHT22;37475;43.358;1.248;2022-12-18T12:47:28;10.20;82.60
51383;DHT22;37475;43.358;1.248;2022-12-18T12:49:59;10.30;82.00
51383;DHT22;37475;43.358;1.248;2022-12-18T12:52:41;10.30;82.10
51383;DHT22;37475;43.358;1.248;2022-12-18T12:55:17;10.30;81.90
51383;DHT22;37475;43.358;1.248;2022-12-18T13:00:44;10.40;82.50
51383;DHT22;37475;43.358;1.248;2022-12-18T13:06:29;10.30;81.90
51383;DHT22;37475;43.358;1.248;2022-12-18T13:09:13;10.70;81.30
51383;DHT22;37475;43.358;1.248;2022-12-18T13:11:41;11.50;79.20
51383;DHT22;37475;43.358;1.248;2022-12-18T13:14:37;11.90;76.30
51383;DHT22;37475;43.358;1.248;2022-12-18T13:20:14;12.30;74.50
51383;DHT22;37475;43.358;1.248;2022-12-18T13:22:48;12.60;74.70
51383;DHT22;37475;43.358;1.248;2022-12-18T13:25:37;13.20;72.90
51383;DHT22;37475;43.358;1.248;2022-12-18T13:28:15;13.70;72.00
51383;DHT22;37475;43.358;1.248;2022-12-18T13:31:01;13.10;73.10
51383;DHT22;37475;43.358;1.248;2022-12-18T13:33:37;12.80;72.50
51383;DHT22;37475;43.358;1.248;2022-12-18T13:36:13;12.80;73.50
51383;DHT22;37475;43.358;1.248;2022-12-18T13:38:44;12.60;73.70
51383;DHT22;37475;43.358;1.248;2022-12-18T13:41:24;12.70;73.60
51383;DHT22;37475;43.358;1.248;2022-12-18T13:43:57;13.00;74.40
51383;DHT22;37475;43.358;1.248;2022-12-18T13:46:46;13.00;72.40
51383;DHT22;37475;43.358;1.248;2022-12-18T13:51:44;13.40;73.00
51383;DHT22;37475;43.358;1.248;2022-12-18T13:54:35;13.60;72.20
51383;DHT22;37475;43.358;1.248;2022-12-18T13:57:05;12.50;74.40
51383;DHT22;37475;43.358;1.248;2022-12-18T13:59:50;12.30;75.70
51383;DHT22;37475;43.358;1.248;2022-12-18T14:02:27;12.20;75.40
51383;DHT22;37475;43.358;1.248;2022-12-18T14:04:54;12.10;76.30
51383;DHT22;37475;43.358;1.248;2022-12-18T14:07:25;12.30;75.60
51383;DHT22;37475;43.358;1.248;2022-12-18T14:09:57;11.90;77.00
51383;DHT22;37475;43.358;1.248;2022-12-18T14:12:32;11.70;77.80
51383;DHT22;37475;43.358;1.248;2022-12-18T14:20:47;11.60;78.70
51383;DHT22;37475;43.358;1.248;2022-12-18T14:23:34;11.40;79.60
51383;DHT22;37475;43.358;1.248;2022-12-18T14:26:17;11.30;79.50
51383;DHT22;37475;43.358;1.248;2022-12-18T14:28:45;11.60;79.80
51383;DHT22;37475;43.358;1.248;2022-12-18T14:31:22;11.50;80.10
51383;DHT22;37475;43.358;1.248;2022-12-18T14:33:50;11.30;79.60
51383;DHT22;37475;43.358;1.248;2022-12-18T14:36:37;11.20;80.50
51383;DHT22;37475;43.358;1.248;2022-12-18T14:39:05;11.40;80.00
51383;DHT22;37475;43.358;1.248;2022-12-18T14:41:31;11.40;79.20
51383;DHT22;37475;43.358;1.248;2022-12-18T14:44:05;11.10;80.10
51383;DHT22;37475;43.358;1.248;2022-12-18T14:46:36;11.20;80.50
51383;DHT22;37475;43.358;1.248;2022-12-18T14:52:06;11.20;80.50
51383;DHT22;37475;43.358;1.248;2022-12-18T14:54:47;11.00;81.00
51383;DHT22;37475;43.358;1.248;2022-12-18T14:57:25;11.00;81.00
51383;DHT22;37475;43.358;1.248;2022-12-18T14:59:52;10.90;81.20
51383;DHT22;37475;43.358;1.248;2022-12-18T15:02:19;10.80;81.60
51383;DHT22;37475;43.358;1.248;2022-12-18T15:05:05;10.70;82.00
51383;DHT22;37475;43.358;1.248;2022-12-18T15:07:48;10.80;82.20
51383;DHT22;37475;43.358;1.248;2022-12-18T15:10:23;10.80;81.90
51383;DHT22;37475;43.358;1.248;2022-12-18T15:20:47;10.80;82.60
51383;DHT22;37475;43.358;1.248;2022-12-18T15:23:24;10.70;82.50
51383;DHT22;37475;43.358;1.248;2022-12-18T15:26:03;10.60;82.90
51383;DHT22;37475;43.358;1.248;2022-12-18T15:28:51;10.70;82.70
51383;DHT22;37475;43.358;1.248;2022-12-18T15:31:34;10.60;83.10
51383;DHT22;37475;43.358;1.248;2022-12-18T15:34:12;10.40;83.80
51383;DHT22;37475;43.358;1.248;2022-12-18T15:36:39;10.40;84.00
51383;DHT22;37475;43.358;1.248;2022-12-18T15:39:05;10.50;83.80
51383;DHT22;37475;43.358;1.248;2022-12-18T15:41:33;10.50;83.90
51383;DHT22;37475;43.358;1.248;2022-12-18T15:44:00;10.40;84.00
51383;DHT22;37475;43.358;1.248;2022-12-18T15:46:26;10.20;84.40
51383;DHT22;37475;43.358;1.248;2022-12-18T15:48:57;10.10;85.00
51383;DHT22;37475;43.358;1.248;2022-12-18T15:51:26;10.10;85.20
51383;DHT22;37475;43.358;1.248;2022-12-18T15:53:54;10.00;85.40
51383;DHT22;37475;43.358;1.248;2022-12-18T15:56:22;9.90;85.90
51383;DHT22;37475;43.358;1.248;2022-12-18T15:59:17;9.80;86.30
51383;DHT22;37475;43.358;1.248;2022-12-18T16:01:46;9.70;86.60
51383;DHT22;37475;43.358;1.248;2022-12-18T16:04:16;9.60;86.70
51383;DHT22;37475;43.358;1.248;2022-12-18T16:06:43;9.60;86.80
51383;DHT22;37475;43.358;1.248;2022-12-18T16:09:09;9.60;87.10
51383;DHT22;37475;43.358;1.248;2022-12-18T16:11:36;9.60;87.30
51383;DHT22;37475;43.358;1.248;2022-12-18T16:17:05;9.40;87.90
51383;DHT22;37475;43.358;1.248;2022-12-18T16:19:34;9.40;88.10
51383;DHT22;37475;43.358;1.248;2022-12-18T16:21:59;9.30;88.60
51383;DHT22;37475;43.358;1.248;2022-12-18T16:24:31;9.30;88.60
51383;DHT22;37475;43.358;1.248;2022-12-18T16:26:59;9.20;88.90
51383;DHT22;37475;43.358;1.248;2022-12-18T16:29:27;9.20;89.10
51383;DHT22;37475;43.358;1.248;2022-12-18T16:31:58;9.10;89.60
51383;DHT22;37475;43.358;1.248;2022-12-18T16:34:33;9.10;89.60
51383;DHT22;37475;43.358;1.248;2022-12-18T16:37:04;9.10;89.80
51383;DHT22;37475;43.358;1.248;2022-12-18T16:39:32;9.10;89.90
51383;DHT22;37475;43.358;1.248;2022-12-18T16:42:00;9.00;90.20
51383;DHT22;37475;43.358;1.248;2022-12-18T16:44:26;9.00;90.40
51383;DHT22;37475;43.358;1.248;2022-12-18T16:46:52;9.00;90.40
51383;DHT22;37475;43.358;1.248;2022-12-18T16:49:19;8.90;90.40
51383;DHT22;37475;43.358;1.248;2022-12-18T16:51:48;8.90;90.70
51383;DHT22;37475;43.358;1.248;2022-12-18T16:54:14;8.90;90.70
51383;DHT22;37475;43.358;1.248;2022-12-18T16:56:40;8.90;90.90
51383;DHT22;37475;43.358;1.248;2022-12-18T16:59:07;8.90;91.00
51383;DHT22;37475;43.358;1.248;2022-12-18T17:01:35;8.90;91.30
51383;DHT22;37475;43.358;1.248;2022-12-18T17:04:03;8.90;91.30
51383;DHT22;37475;43.358;1.248;2022-12-18T17:06:32;8.90;91.40
51383;DHT22;37475;43.358;1.248;2022-12-18T17:09:03;8.90;91.60
51383;DHT22;37475;43.358;1.248;2022-12-18T17:11:32;8.90;91.50
51383;DHT22;37475;43.358;1.248;2022-12-18T17:13:59;8.80;91.30
51383;DHT22;37475;43.358;1.248;2022-12-18T17:16:34;8.80;91.60
51383;DHT22;37475;43.358;1.248;2022-12-18T17:19:00;8.80;91.70
51383;DHT22;37475;43.358;1.248;2022-12-18T17:21:26;8.90;91.90
51383;DHT22;37475;43.358;1.248;2022-12-18T17:23:52;8.90;92.20
51383;DHT22;37475;43.358;1.248;2022-12-18T17:26:17;8.80;92.30
51383;DHT22;37475;43.358;1.248;2022-12-18T17:28:43;8.90;92.80
51383;DHT22;37475;43.358;1.248;2022-12-18T17:31:15;8.90;92.80
51383;DHT22;37475;43.358;1.248;2022-12-18T17:33:43;9.10;93.10
51383;DHT22;37475;43.358;1.248;2022-12-18T17:36:09;9.10;93.00
51383;DHT22;37475;43.358;1.248;2022-12-18T17:38:36;9.10;93.20
51383;DHT22;37475;43.358;1.248;2022-12-18T17:41:04;9.10;93.30
51383;DHT22;37475;43.358;1.248;2022-12-18T17:43:31;9.20;93.30
51383;DHT22;37475;43.358;1.248;2022-12-18T17:46:04;9.30;93.60
51383;DHT22;37475;43.358;1.248;2022-12-18T17:48:31;9.30;93.50
51383;DHT22;37475;43.358;1.248;2022-12-18T17:51:02;9.30;93.50
51383;DHT22;37475;43.358;1.248;2022-12-18T17:53:28;9.30;93.60